sensor_id;sensor_type;location;lat;lon;timestamp;temperature;humidity
12622;DHT22;6376;48.182;-1.644;2024-01-07T00:01:38;12.00;87.40
12622;DHT22;6376;48.182;-1.644;2024-01-07T00:04:04;12.00;87.40
12622;DHT22;6376;48.182;-1.644;2024-01-07T00:06:29;12.00;87.50
12622;DHT22;6376;48.182;-1.644;2024-01-07T00:08:55;11.90;87.30
12622;DHT22;6376;48.182;-1.644;2024-01-07T00:11:20;11.90;87.30
12622;DHT22;6376;48.182;-1.644;2024-01-07T00:13:46;11.90;87.40
12622;DHT22;6376;48.182;-1.644;2024-01-07T00:16:12;11.90;87.40
12622;DHT22;6376;48.182;-1.644;2024-01-07T00:18:37;11.90;87.40
12622;DHT22;6376;48.182;-1.644;2024-01-07T00:21:04;11.90;87.50
12622;DHT22;6376;48.182;-1.644;2024-01-07T00:23:30;11.90;87.40
12622;DHT22;6376;48.182;-1.644;2024-01-07T00:25:55;11.80;87.40
12622;DHT22;6376;48.182;-1.644;2024-01-07T00:28:21;11.80;87.20
12622;DHT22;6376;48.182;-1.644;2024-01-07T00:30:46;11.80;87.20
12622;DHT22;6376;48.182;-1.644;2024-01-07T00:33:12;11.80;87.20
12622;DHT22;6376;48.182;-1.644;2024-01-07T00:35:37;11.80;87.40
12622;DHT22;6376;48.182;-1.644;2024-01-07T00:38:03;11.80;87.30
12622;DHT22;6376;48.182;-1.644;2024-01-07T00:40:29;11.80;87.30
12622;DHT22;6376;48.182;-1.644;2024-01-07T00:42:54;11.80;87.30
12622;DHT22;6376;48.182;-1.644;2024-01-07T00:45:20;11.80;87.50
12622;DHT22;6376;48.182;-1.644;2024-01-07T00:47:47;11.80;87.40
12622;DHT22;6376;48.182;-1.644;2024-01-07T00:50:12;11.80;87.60
12622;DHT22;6376;48.182;-1.644;2024-01-07T00:52:38;11.80;87.50
12622;DHT22;6376;48.182;-1.644;2024-01-07T00:55:05;11.80;88.00
12622;DHT22;6376;48.182;-1.644;2024-01-07T00:57:31;11.80;88.00
12622;DHT22;6376;48.182;-1.644;2024-01-07T00:59:57;11.80;87.50
12622;DHT22;6376;48.182;-1.644;2024-01-07T01:02:23;11.80;87.80
12622;DHT22;6376;48.182;-1.644;2024-01-07T01:04:48;11.80;88.00
12622;DHT22;6376;48.182;-1.644;2024-01-07T01:07:14;11.80;87.80
12622;DHT22;6376;48.182;-1.644;2024-01-07T01:09:40;11.70;87.50
12622;DHT22;6376;48.182;-1.644;2024-01-07T01:12:05;11.70;87.40
12622;DHT22;6376;48.182;-1.644;2024-01-07T01:14:31;11.70;87.40
12622;DHT22;6376;48.182;-1.644;2024-01-07T01:16:57;11.70;87.40
12622;DHT22;6376;48.182;-1.644;2024-01-07T01:19:24;11.70;87.20
12622;DHT22;6376;48.182;-1.644;2024-01-07T01:21:49;11.70;87.60
12622;DHT22;6376;48.182;-1.644;2024-01-07T01:24:15;11.70;87.60
12622;DHT22;6376;48.182;-1.644;2024-01-07T01:26:41;11.70;87.20
12622;DHT22;6376;48.182;-1.644;2024-01-07T01:29:06;11.60;87.00
12622;DHT22;6376;48.182;-1.644;2024-01-07T01:31:32;11.60;87.20
12622;DHT22;6376;48.182;-1.644;2024-01-07T01:33:58;11.60;87.00
12622;DHT22;6376;48.182;-1.644;2024-01-07T01:36:23;11.60;87.20
12622;DHT22;6376;48.182;-1.644;2024-01-07T01:38:49;11.60;87.90
12622;DHT22;6376;48.182;-1.644;2024-01-07T01:41:16;11.60;87.20
12622;DHT22;6376;48.182;-1.644;2024-01-07T01:43:41;11.60;87.20
12622;DHT22;6376;48.182;-1.644;2024-01-07T01:46:07;11.60;87.20
12622;DHT22;6376;48.182;-1.644;2024-01-07T01:48:33;11.60;87.10
12622;DHT22;6376;48.182;-1.644;2024-01-07T01:51:00;11.60;87.10
12622;DHT22;6376;48.182;-1.644;2024-01-07T01:53:26;11.60;87.30
12622;DHT22;6376;48.182;-1.644;2024-01-07T01:55:54;11.50;87.20
12622;DHT22;6376;48.182;-1.644;2024-01-07T01:58:20;11.50;87.20
12622;DHT22;6376;48.182;-1.644;2024-01-07T02:00:47;11.50;87.30
12622;DHT22;6376;48.182;-1.644;2024-01-07T02:03:13;11.50;87.40
12622;DHT22;6376;48.182;-1.644;2024-01-07T02:05:38;11.50;87.20
12622;DHT22;6376;48.182;-1.644;2024-01-07T02:08:05;11.50;87.20
12622;DHT22;6376;48.182;-1.644;2024-01-07T02:10:31;11.50;87.30
12622;DHT22;6376;48.182;-1.644;2024-01-07T02:13:00;11.50;87.50
12622;DHT22;6376;48.182;-1.644;2024-01-07T02:15:26;11.50;87.30
12622;DHT22;6376;48.182;-1.644;2024-01-07T02:17:51;11.50;87.00
12622;DHT22;6376;48.182;-1.644;2024-01-07T02:20:17;11.50;87.30
12622;DHT22;6376;48.182;-1.644;2024-01-07T02:22:43;11.40;87.20
12622;DHT22;6376;48.182;-1.644;2024-01-07T02:25:09;11.50;87.30
12622;DHT22;6376;48.182;-1.644;2024-01-07T02:27:34;11.50;87.30
12622;DHT22;6376;48.182;-1.644;2024-01-07T02:30:00;11.40;87.60
12622;DHT22;6376;48.182;-1.644;2024-01-07T02:32:26;11.40;87.60
12622;DHT22;6376;48.182;-1.644;2024-01-07T02:34:52;11.40;87.60
12622;DHT22;6376;48.182;-1.644;2024-01-07T02:37:17;11.40;87.20
12622;DHT22;6376;48.182;-1.644;2024-01-07T02:39:43;11.40;87.20
12622;DHT22;6376;48.182;-1.644;2024-01-07T02:42:10;11.40;87.00
12622;DHT22;6376;48.182;-1.644;2024-01-07T02:44:35;11.40;87.50
12622;DHT22;6376;48.182;-1.644;2024-01-07T02:47:01;11.40;87.20
12622;DHT22;6376;48.182;-1.644;2024-01-07T02:49:28;11.40;86.90
12622;DHT22;6376;48.182;-1.644;2024-01-07T02:51:53;11.40;87.20
12622;DHT22;6376;48.182;-1.644;2024-01-07T02:54:19;11.30;86.80
12622;DHT22;6376;48.182;-1.644;2024-01-07T02:56:45;11.40;87.50
12622;DHT22;6376;48.182;-1.644;2024-01-07T02:59:10;11.30;87.10
12622;DHT22;6376;48.182;-1.644;2024-01-07T03:01:36;11.30;87.10
12622;DHT22;6376;48.182;-1.644;2024-01-07T03:04:10;11.30;87.30
12622;DHT22;6376;48.182;-1.644;2024-01-07T03:06:36;11.30;87.10
12622;DHT22;6376;48.182;-1.644;2024-01-07T03:09:01;11.30;87.00
12622;DHT22;6376;48.182;-1.644;2024-01-07T03:11:28;11.30;87.00
12622;DHT22;6376;48.182;-1.644;2024-01-07T03:13:55;11.30;87.10
12622;DHT22;6376;48.182;-1.644;2024-01-07T03:16:22;11.30;87.10
12622;DHT22;6376;48.182;-1.644;2024-01-07T03:18:48;11.30;87.40
12622;DHT22;6376;48.182;-1.644;2024-01-07T03:21:22;11.30;87.50
12622;DHT22;6376;48.182;-1.644;2024-01-07T03:23:49;11.30;87.30
12622;DHT22;6376;48.182;-1.644;2024-01-07T03:26:17;11.30;87.40
12622;DHT22;6376;48.182;-1.644;2024-01-07T03:28:43;11.30;87.20
12622;DHT22;6376;48.182;-1.644;2024-01-07T03:31:11;11.30;87.10
12622;DHT22;6376;48.182;-1.644;2024-01-07T03:33:38;11.30;87.10
12622;DHT22;6376;48.182;-1.644;2024-01-07T03:36:13;11.30;87.00
12622;DHT22;6376;48.182;-1.644;2024-01-07T03:38:40;11.30;87.00
12622;DHT22;6376;48.182;-1.644;2024-01-07T03:41:07;11.30;87.00
12622;DHT22;6376;48.182;-1.644;2024-01-07T03:43:33;11.30;87.00
12622;DHT22;6376;48.182;-1.644;2024-01-07T03:45:59;11.30;87.00
12622;DHT22;6376;48.182;-1.644;2024-01-07T03:48:26;11.30;86.90
12622;DHT22;6376;48.182;-1.644;2024-01-07T03:50:51;11.30;87.00
12622;DHT22;6376;48.182;-1.644;2024-01-07T03:53:18;11.30;87.20
12622;DHT22;6376;48.182;-1.644;2024-01-07T03:55:44;11.30;87.20
12622;DHT22;6376;48.182;-1.644;2024-01-07T03:58:10;11.30;87.50
12622;DHT22;6376;48.182;-1.644;2024-01-07T04:00:36;11.30;87.30
12622;DHT22;6376;48.182;-1.644;2024-01-07T04:03:02;11.30;87.50
12622;DHT22;6376;48.182;-1.644;2024-01-07T04:05:28;11.30;87.50
12622;DHT22;6376;48.182;-1.644;2024-01-07T04:07:54;11.30;87.50
12622;DHT22;6376;48.182;-1.644;2024-01-07T04:10:20;11.30;87.50
12622;DHT22;6376;48.182;-1.644;2024-01-07T04:12:46;11.30;87.60
12622;DHT22;6376;48.182;-1.644;2024-01-07T04:15:12;11.30;87.60
12622;DHT22;6376;48.182;-1.644;2024-01-07T04:17:38;11.30;87.60
12622;DHT22;6376;48.182;-1.644;2024-01-07T04:20:05;11.30;87.60
12622;DHT22;6376;48.182;-1.644;2024-01-07T04:22:30;11.30;87.60
12622;DHT22;6376;48.182;-1.644;2024-01-07T04:24:56;11.30;87.60
12622;DHT22;6376;48.182;-1.644;2024-01-07T04:27:22;11.30;87.50
12622;DHT22;6376;48.182;-1.644;2024-01-07T04:29:47;11.30;87.60
12622;DHT22;6376;48.182;-1.644;2024-01-07T04:32:13;11.30;87.70
12622;DHT22;6376;48.182;-1.644;2024-01-07T04:34:38;11.30;87.70
12622;DHT22;6376;48.182;-1.644;2024-01-07T04:37:04;11.30;87.60
12622;DHT22;6376;48.182;-1.644;2024-01-07T04:39:30;11.30;87.70
12622;DHT22;6376;48.182;-1.644;2024-01-07T04:41:55;11.30;87.60
12622;DHT22;6376;48.182;-1.644;2024-01-07T04:44:21;11.30;87.60
12622;DHT22;6376;48.182;-1.644;2024-01-07T04:46:47;11.30;87.50
12622;DHT22;6376;48.182;-1.644;2024-01-07T04:49:13;11.30;87.50
12622;DHT22;6376;48.182;-1.644;2024-01-07T04:51:38;11.30;87.60
12622;DHT22;6376;48.182;-1.644;2024-01-07T04:54:04;11.30;88.30
12622;DHT22;6376;48.182;-1.644;2024-01-07T04:56:31;11.30;87.70
12622;DHT22;6376;48.182;-1.644;2024-01-07T04:58:57;11.30;87.60
12622;DHT22;6376;48.182;-1.644;2024-01-07T05:01:22;11.20;87.70
12622;DHT22;6376;48.182;-1.644;2024-01-07T05:03:48;11.30;87.70
12622;DHT22;6376;48.182;-1.644;2024-01-07T05:06:14;11.20;87.70
12622;DHT22;6376;48.182;-1.644;2024-01-07T05:08:41;11.20;87.60
12622;DHT22;6376;48.182;-1.644;2024-01-07T05:11:07;11.20;87.70
12622;DHT22;6376;48.182;-1.644;2024-01-07T05:13:32;11.20;87.70
12622;DHT22;6376;48.182;-1.644;2024-01-07T05:15:58;11.20;87.70
12622;DHT22;6376;48.182;-1.644;2024-01-07T05:18:24;11.20;87.60
12622;DHT22;6376;48.182;-1.644;2024-01-07T05:20:50;11.30;87.70
12622;DHT22;6376;48.182;-1.644;2024-01-07T05:23:16;11.30;87.70
12622;DHT22;6376;48.182;-1.644;2024-01-07T05:25:45;11.20;87.60
12622;DHT22;6376;48.182;-1.644;2024-01-07T05:28:14;11.20;87.50
12622;DHT22;6376;48.182;-1.644;2024-01-07T05:30:41;11.20;87.60
12622;DHT22;6376;48.182;-1.644;2024-01-07T05:33:06;11.20;87.70
12622;DHT22;6376;48.182;-1.644;2024-01-07T05:35:32;11.20;87.70
12622;DHT22;6376;48.182;-1.644;2024-01-07T05:37:58;11.20;87.70
12622;DHT22;6376;48.182;-1.644;2024-01-07T05:40:24;11.30;87.70
12622;DHT22;6376;48.182;-1.644;2024-01-07T05:42:49;11.20;87.70
12622;DHT22;6376;48.182;-1.644;2024-01-07T05:45:15;11.20;87.70
12622;DHT22;6376;48.182;-1.644;2024-01-07T05:47:41;11.20;87.60
12622;DHT22;6376;48.182;-1.644;2024-01-07T05:50:07;11.20;87.70
12622;DHT22;6376;48.182;-1.644;2024-01-07T05:52:33;11.20;87.60
12622;DHT22;6376;48.182;-1.644;2024-01-07T05:54:59;11.20;87.30
12622;DHT22;6376;48.182;-1.644;2024-01-07T05:57:25;11.20;87.30
12622;DHT22;6376;48.182;-1.644;2024-01-07T05:59:50;11.20;87.40
12622;DHT22;6376;48.182;-1.644;2024-01-07T06:02:17;11.20;87.40
12622;DHT22;6376;48.182;-1.644;2024-01-07T06:04:43;11.20;87.30
12622;DHT22;6376;48.182;-1.644;2024-01-07T06:07:08;11.20;87.50
12622;DHT22;6376;48.182;-1.644;2024-01-07T06:09:34;11.20;87.50
12622;DHT22;6376;48.182;-1.644;2024-01-07T06:12:00;11.20;87.40
12622;DHT22;6376;48.182;-1.644;2024-01-07T06:14:26;11.10;87.30
12622;DHT22;6376;48.182;-1.644;2024-01-07T06:16:52;11.20;87.40
12622;DHT22;6376;48.182;-1.644;2024-01-07T06:19:18;11.20;87.30
12622;DHT22;6376;48.182;-1.644;2024-01-07T06:21:44;11.20;87.50
12622;DHT22;6376;48.182;-1.644;2024-01-07T06:24:09;11.20;87.70
12622;DHT22;6376;48.182;-1.644;2024-01-07T06:26:35;11.20;87.70
12622;DHT22;6376;48.182;-1.644;2024-01-07T06:29:01;11.20;87.70
12622;DHT22;6376;48.182;-1.644;2024-01-07T06:31:27;11.20;87.70
12622;DHT22;6376;48.182;-1.644;2024-01-07T06:33:53;11.10;87.70
12622;DHT22;6376;48.182;-1.644;2024-01-07T06:36:21;11.10;87.80
12622;DHT22;6376;48.182;-1.644;2024-01-07T06:38:47;11.10;87.70
12622;DHT22;6376;48.182;-1.644;2024-01-07T06:41:14;11.20;87.90
12622;DHT22;6376;48.182;-1.644;2024-01-07T06:43:39;11.20;87.70
12622;DHT22;6376;48.182;-1.644;2024-01-07T06:46:05;11.10;88.60
12622;DHT22;6376;48.182;-1.644;2024-01-07T06:48:31;11.10;88.60
12622;DHT22;6376;48.182;-1.644;2024-01-07T06:50:57;11.10;87.90
12622;DHT22;6376;48.182;-1.644;2024-01-07T06:53:23;11.10;87.90
12622;DHT22;6376;48.182;-1.644;2024-01-07T06:55:49;11.10;87.80
12622;DHT22;6376;48.182;-1.644;2024-01-07T06:58:14;11.10;87.70
12622;DHT22;6376;48.182;-1.644;2024-01-07T07:00:40;11.10;87.70
12622;DHT22;6376;48.182;-1.644;2024-01-07T07:03:06;11.10;87.80
12622;DHT22;6376;48.182;-1.644;2024-01-07T07:05:32;11.20;87.80
12622;DHT22;6376;48.182;-1.644;2024-01-07T07:07:58;11.20;87.70
12622;DHT22;6376;48.182;-1.644;2024-01-07T07:10:23;11.20;87.70
12622;DHT22;6376;48.182;-1.644;2024-01-07T07:12:49;11.10;87.60
12622;DHT22;6376;48.182;-1.644;2024-01-07T07:15:16;11.20;87.60
12622;DHT22;6376;48.182;-1.644;2024-01-07T07:17:42;11.10;87.60
12622;DHT22;6376;48.182;-1.644;2024-01-07T07:20:08;11.10;87.60
12622;DHT22;6376;48.182;-1.644;2024-01-07T07:22:34;11.10;87.70
12622;DHT22;6376;48.182;-1.644;2024-01-07T07:25:00;11.10;87.70
12622;DHT22;6376;48.182;-1.644;2024-01-07T07:27:26;11.10;87.70
12622;DHT22;6376;48.182;-1.644;2024-01-07T07:29:51;11.10;87.70
12622;DHT22;6376;48.182;-1.644;2024-01-07T07:32:17;11.10;87.70
12622;DHT22;6376;48.182;-1.644;2024-01-07T07:34:43;11.10;87.70
12622;DHT22;6376;48.182;-1.644;2024-01-07T07:37:09;11.10;87.70
12622;DHT22;6376;48.182;-1.644;2024-01-07T07:39:35;11.10;87.70
12622;DHT22;6376;48.182;-1.644;2024-01-07T07:42:01;11.10;87.70
12622;DHT22;6376;48.182;-1.644;2024-01-07T07:44:27;11.10;87.70
12622;DHT22;6376;48.182;-1.644;2024-01-07T07:46:52;11.10;87.80
12622;DHT22;6376;48.182;-1.644;2024-01-07T07:49:18;11.10;87.70
12622;DHT22;6376;48.182;-1.644;2024-01-07T07:51:44;11.10;87.80
12622;DHT22;6376;48.182;-1.644;2024-01-07T07:54:09;11.00;87.70
12622;DHT22;6376;48.182;-1.644;2024-01-07T07:56:35;11.10;87.70
12622;DHT22;6376;48.182;-1.644;2024-01-07T07:59:01;11.10;87.70
12622;DHT22;6376;48.182;-1.644;2024-01-07T08:01:27;11.00;87.70
12622;DHT22;6376;48.182;-1.644;2024-01-07T08:03:53;11.00;87.60
12622;DHT22;6376;48.182;-1.644;2024-01-07T08:06:19;11.00;87.60
12622;DHT22;6376;48.182;-1.644;2024-01-07T08:08:45;11.00;87.40
12622;DHT22;6376;48.182;-1.644;2024-01-07T08:11:11;11.00;87.30
12622;DHT22;6376;48.182;-1.644;2024-01-07T08:13:37;11.00;87.30
12622;DHT22;6376;48.182;-1.644;2024-01-07T08:16:04;11.00;87.70
12622;DHT22;6376;48.182;-1.644;2024-01-07T08:18:29;11.00;87.70
12622;DHT22;6376;48.182;-1.644;2024-01-07T08:20:55;11.00;87.70
12622;DHT22;6376;48.182;-1.644;2024-01-07T08:23:21;11.00;87.90
12622;DHT22;6376;48.182;-1.644;2024-01-07T08:25:48;11.00;87.90
12622;DHT22;6376;48.182;-1.644;2024-01-07T08:28:13;11.00;87.70
12622;DHT22;6376;48.182;-1.644;2024-01-07T08:30:39;11.00;87.80
12622;DHT22;6376;48.182;-1.644;2024-01-07T08:33:05;11.00;87.80
12622;DHT22;6376;48.182;-1.644;2024-01-07T08:35:30;11.00;87.70
12622;DHT22;6376;48.182;-1.644;2024-01-07T08:37:56;11.00;87.70
12622;DHT22;6376;48.182;-1.644;2024-01-07T08:40:22;11.00;87.70
12622;DHT22;6376;48.182;-1.644;2024-01-07T08:42:47;11.00;87.70
12622;DHT22;6376;48.182;-1.644;2024-01-07T08:45:13;11.00;87.70
12622;DHT22;6376;48.182;-1.644;2024-01-07T08:47:39;11.00;87.60
12622;DHT22;6376;48.182;-1.644;2024-01-07T08:50:05;11.00;87.50
12622;DHT22;6376;48.182;-1.644;2024-01-07T08:52:31;11.00;87.60
12622;DHT22;6376;48.182;-1.644;2024-01-07T08:54:56;11.00;87.50
12622;DHT22;6376;48.182;-1.644;2024-01-07T08:57:22;11.10;87.50
12622;DHT22;6376;48.182;-1.644;2024-01-07T08:59:49;11.00;87.40
12622;DHT22;6376;48.182;-1.644;2024-01-07T09:02:14;11.00;87.30
12622;DHT22;6376;48.182;-1.644;2024-01-07T09:04:40;11.10;87.20
12622;DHT22;6376;48.182;-1.644;2024-01-07T09:07:05;11.20;86.90
12622;DHT22;6376;48.182;-1.644;2024-01-07T09:09:31;11.30;86.50
12622;DHT22;6376;48.182;-1.644;2024-01-07T09:11:57;11.30;86.40
12622;DHT22;6376;48.182;-1.644;2024-01-07T09:14:24;11.30;86.40
12622;DHT22;6376;48.182;-1.644;2024-01-07T09:16:50;11.30;86.40
12622;DHT22;6376;48.182;-1.644;2024-01-07T09:19:16;11.30;86.40
12622;DHT22;6376;48.182;-1.644;2024-01-07T09:21:43;11.30;86.30
12622;DHT22;6376;48.182;-1.644;2024-01-07T09:24:09;11.30;86.00
12622;DHT22;6376;48.182;-1.644;2024-01-07T09:26:35;11.30;86.30
12622;DHT22;6376;48.182;-1.644;2024-01-07T09:29:00;11.40;86.40
12622;DHT22;6376;48.182;-1.644;2024-01-07T09:31:27;11.40;87.00
12622;DHT22;6376;48.182;-1.644;2024-01-07T09:33:52;11.50;86.60
12622;DHT22;6376;48.182;-1.644;2024-01-07T09:36:18;11.50;86.20
12622;DHT22;6376;48.182;-1.644;2024-01-07T09:38:44;11.50;86.10
12622;DHT22;6376;48.182;-1.644;2024-01-07T09:41:09;11.40;85.80
12622;DHT22;6376;48.182;-1.644;2024-01-07T09:43:35;11.40;85.80
12622;DHT22;6376;48.182;-1.644;2024-01-07T09:46:02;11.60;86.20
12622;DHT22;6376;48.182;-1.644;2024-01-07T09:48:28;11.70;85.30
12622;DHT22;6376;48.182;-1.644;2024-01-07T09:50:54;11.80;84.60
12622;DHT22;6376;48.182;-1.644;2024-01-07T09:53:21;11.90;84.10
12622;DHT22;6376;48.182;-1.644;2024-01-07T09:56:17;12.00;83.80
12622;DHT22;6376;48.182;-1.644;2024-01-07T09:58:45;12.10;83.50
12622;DHT22;6376;48.182;-1.644;2024-01-07T10:01:17;12.10;83.40
12622;DHT22;6376;48.182;-1.644;2024-01-07T10:03:42;11.90;83.70
12622;DHT22;6376;48.182;-1.644;2024-01-07T10:06:08;11.80;84.10
12622;DHT22;6376;48.182;-1.644;2024-01-07T10:08:34;11.80;84.10
12622;DHT22;6376;48.182;-1.644;2024-01-07T10:10:59;11.70;84.30
12622;DHT22;6376;48.182;-1.644;2024-01-07T10:13:27;11.60;84.40
12622;DHT22;6376;48.182;-1.644;2024-01-07T10:15:52;11.60;84.70
12622;DHT22;6376;48.182;-1.644;2024-01-07T10:18:18;11.60;84.70
12622;DHT22;6376;48.182;-1.644;2024-01-07T10:20:44;11.60;84.80
12622;DHT22;6376;48.182;-1.644;2024-01-07T10:23:10;11.60;85.60
12622;DHT22;6376;48.182;-1.644;2024-01-07T10:25:36;11.70;85.50
12622;DHT22;6376;48.182;-1.644;2024-01-07T10:28:03;11.70;85.20
12622;DHT22;6376;48.182;-1.644;2024-01-07T10:30:31;11.70;85.20
12622;DHT22;6376;48.182;-1.644;2024-01-07T10:33:00;11.70;84.90
12622;DHT22;6376;48.182;-1.644;2024-01-07T10:35:29;11.70;84.50
12622;DHT22;6376;48.182;-1.644;2024-01-07T10:37:56;11.70;84.40
12622;DHT22;6376;48.182;-1.644;2024-01-07T10:40:23;11.60;84.70
12622;DHT22;6376;48.182;-1.644;2024-01-07T10:42:49;11.60;84.60
12622;DHT22;6376;48.182;-1.644;2024-01-07T10:45:16;11.60;84.60
12622;DHT22;6376;48.182;-1.644;2024-01-07T10:47:44;11.60;84.70
12622;DHT22;6376;48.182;-1.644;2024-01-07T10:50:14;11.60;84.80
12622;DHT22;6376;48.182;-1.644;2024-01-07T10:52:40;11.60;84.90
12622;DHT22;6376;48.182;-1.644;2024-01-07T10:55:09;11.50;84.80
12622;DHT22;6376;48.182;-1.644;2024-01-07T10:57:43;11.50;85.00
12622;DHT22;6376;48.182;-1.644;2024-01-07T11:00:12;11.50;84.80
12622;DHT22;6376;48.182;-1.644;2024-01-07T11:05:39;11.50;85.00
12622;DHT22;6376;48.182;-1.644;2024-01-07T11:08:18;11.50;84.70
12622;DHT22;6376;48.182;-1.644;2024-01-07T11:10:50;11.40;85.50
12622;DHT22;6376;48.182;-1.644;2024-01-07T11:13:38;11.50;85.00
12622;DHT22;6376;48.182;-1.644;2024-01-07T11:16:07;11.40;85.00
12622;DHT22;6376;48.182;-1.644;2024-01-07T11:18:45;11.50;85.00
12622;DHT22;6376;48.182;-1.644;2024-01-07T11:21:11;11.40;85.00
12622;DHT22;6376;48.182;-1.644;2024-01-07T11:23:45;11.50;85.50
12622;DHT22;6376;48.182;-1.644;2024-01-07T11:26:12;11.50;85.00
12622;DHT22;6376;48.182;-1.644;2024-01-07T11:28:56;11.50;84.70
12622;DHT22;6376;48.182;-1.644;2024-01-07T11:31:42;11.50;84.70
12622;DHT22;6376;48.182;-1.644;2024-01-07T11:34:08;11.50;84.60
12622;DHT22;6376;48.182;-1.644;2024-01-07T11:36:38;11.60;84.80
12622;DHT22;6376;48.182;-1.644;2024-01-07T11:39:04;11.60;85.10
12622;DHT22;6376;48.182;-1.644;2024-01-07T11:41:35;11.60;84.70
12622;DHT22;6376;48.182;-1.644;2024-01-07T11:44:01;11.60;84.40
12622;DHT22;6376;48.182;-1.644;2024-01-07T11:46:29;11.60;84.40
12622;DHT22;6376;48.182;-1.644;2024-01-07T11:48:57;11.60;84.50
12622;DHT22;6376;48.182;-1.644;2024-01-07T11:51:28;11.50;84.40
12622;DHT22;6376;48.182;-1.644;2024-01-07T11:53:56;11.50;84.60
12622;DHT22;6376;48.182;-1.644;2024-01-07T11:56:22;11.50;84.50
12622;DHT22;6376;48.182;-1.644;2024-01-07T11:58:47;11.50;84.20
12622;DHT22;6376;48.182;-1.644;2024-01-07T12:01:18;11.50;84.50
12622;DHT22;6376;48.182;-1.644;2024-01-07T12:03:44;11.50;84.70
12622;DHT22;6376;48.182;-1.644;2024-01-07T12:06:10;11.50;84.50
12622;DHT22;6376;48.182;-1.644;2024-01-07T12:08:42;11.40;84.40
12622;DHT22;6376;48.182;-1.644;2024-01-07T12:11:09;11.40;84.20
12622;DHT22;6376;48.182;-1.644;2024-01-07T12:13:37;11.40;84.60
12622;DHT22;6376;48.182;-1.644;2024-01-07T12:16:04;11.40;84.40
12622;DHT22;6376;48.182;-1.644;2024-01-07T12:18:30;11.40;84.40
12622;DHT22;6376;48.182;-1.644;2024-01-07T12:20:59;11.40;84.50
12622;DHT22;6376;48.182;-1.644;2024-01-07T12:23:28;11.40;84.50
12622;DHT22;6376;48.182;-1.644;2024-01-07T12:25:54;11.40;84.60
12622;DHT22;6376;48.182;-1.644;2024-01-07T12:28:21;11.40;84.50
12622;DHT22;6376;48.182;-1.644;2024-01-07T12:30:50;11.40;84.60
12622;DHT22;6376;48.182;-1.644;2024-01-07T12:33:19;11.40;84.50
12622;DHT22;6376;48.182;-1.644;2024-01-07T12:35:48;11.40;84.40
12622;DHT22;6376;48.182;-1.644;2024-01-07T12:38:14;11.30;84.40
12622;DHT22;6376;48.182;-1.644;2024-01-07T12:40:40;11.30;84.50
12622;DHT22;6376;48.182;-1.644;2024-01-07T12:43:06;11.30;84.40
12622;DHT22;6376;48.182;-1.644;2024-01-07T12:45:35;11.30;84.40
12622;DHT22;6376;48.182;-1.644;2024-01-07T12:48:00;11.30;84.50
12622;DHT22;6376;48.182;-1.644;2024-01-07T12:50:28;11.30;84.40
12622;DHT22;6376;48.182;-1.644;2024-01-07T12:52:55;11.30;84.30
12622;DHT22;6376;48.182;-1.644;2024-01-07T12:55:22;11.30;84.40
12622;DHT22;6376;48.182;-1.644;2024-01-07T12:57:48;11.30;84.40
12622;DHT22;6376;48.182;-1.644;2024-01-07T13:00:15;11.30;84.40
12622;DHT22;6376;48.182;-1.644;2024-01-07T13:02:41;11.30;84.40
12622;DHT22;6376;48.182;-1.644;2024-01-07T13:05:07;11.30;84.30
12622;DHT22;6376;48.182;-1.644;2024-01-07T13:07:32;11.30;84.20
12622;DHT22;6376;48.182;-1.644;2024-01-07T13:09:58;11.30;84.10
12622;DHT22;6376;48.182;-1.644;2024-01-07T13:12:25;11.30;84.10
12622;DHT22;6376;48.182;-1.644;2024-01-07T13:14:50;11.30;84.10
12622;DHT22;6376;48.182;-1.644;2024-01-07T13:17:16;11.30;85.00
12622;DHT22;6376;48.182;-1.644;2024-01-07T13:19:41;11.30;84.00
12622;DHT22;6376;48.182;-1.644;2024-01-07T13:22:08;11.30;84.00
12622;DHT22;6376;48.182;-1.644;2024-01-07T13:24:34;11.30;83.90
12622;DHT22;6376;48.182;-1.644;2024-01-07T13:27:00;11.30;83.80
12622;DHT22;6376;48.182;-1.644;2024-01-07T13:29:26;11.30;83.60
12622;DHT22;6376;48.182;-1.644;2024-01-07T13:31:51;11.30;83.70
12622;DHT22;6376;48.182;-1.644;2024-01-07T13:34:17;11.30;83.80
12622;DHT22;6376;48.182;-1.644;2024-01-07T13:36:44;11.30;83.50
12622;DHT22;6376;48.182;-1.644;2024-01-07T13:39:09;11.30;83.50
12622;DHT22;6376;48.182;-1.644;2024-01-07T13:41:36;11.20;83.50
12622;DHT22;6376;48.182;-1.644;2024-01-07T13:44:02;11.20;83.60
12622;DHT22;6376;48.182;-1.644;2024-01-07T13:46:30;11.20;83.40
12622;DHT22;6376;48.182;-1.644;2024-01-07T13:48:56;11.30;83.40
12622;DHT22;6376;48.182;-1.644;2024-01-07T13:51:22;11.20;83.40
12622;DHT22;6376;48.182;-1.644;2024-01-07T13:53:47;11.20;83.50
12622;DHT22;6376;48.182;-1.644;2024-01-07T13:56:13;11.30;83.20
12622;DHT22;6376;48.182;-1.644;2024-01-07T13:58:39;11.20;83.40
12622;DHT22;6376;48.182;-1.644;2024-01-07T14:01:04;11.20;83.50
12622;DHT22;6376;48.182;-1.644;2024-01-07T14:03:33;11.20;83.30
12622;DHT22;6376;48.182;-1.644;2024-01-07T14:05:59;11.20;83.10
12622;DHT22;6376;48.182;-1.644;2024-01-07T14:08:26;11.20;83.10
12622;DHT22;6376;48.182;-1.644;2024-01-07T14:10:51;11.20;83.10
12622;DHT22;6376;48.182;-1.644;2024-01-07T14:13:17;11.20;83.10
12622;DHT22;6376;48.182;-1.644;2024-01-07T14:15:43;11.20;83.00
12622;DHT22;6376;48.182;-1.644;2024-01-07T14:18:09;11.20;83.20
12622;DHT22;6376;48.182;-1.644;2024-01-07T14:20:35;11.20;82.90
12622;DHT22;6376;48.182;-1.644;2024-01-07T14:23:01;11.20;83.00
12622;DHT22;6376;48.182;-1.644;2024-01-07T14:25:26;11.20;82.90
12622;DHT22;6376;48.182;-1.644;2024-01-07T14:27:52;11.20;82.90
12622;DHT22;6376;48.182;-1.644;2024-01-07T14:30:18;11.20;83.00
12622;DHT22;6376;48.182;-1.644;2024-01-07T14:32:43;11.20;82.90
12622;DHT22;6376;48.182;-1.644;2024-01-07T14:35:11;11.20;82.90
12622;DHT22;6376;48.182;-1.644;2024-01-07T14:37:38;11.20;82.90
12622;DHT22;6376;48.182;-1.644;2024-01-07T14:40:05;11.20;82.90
12622;DHT22;6376;48.182;-1.644;2024-01-07T14:42:31;11.20;82.90
12622;DHT22;6376;48.182;-1.644;2024-01-07T14:44:56;11.20;82.90
12622;DHT22;6376;48.182;-1.644;2024-01-07T14:47:22;11.10;82.60
12622;DHT22;6376;48.182;-1.644;2024-01-07T14:49:48;11.10;82.60
12622;DHT22;6376;48.182;-1.644;2024-01-07T14:52:14;11.10;82.60
12622;DHT22;6376;48.182;-1.644;2024-01-07T14:54:40;11.10;82.60
12622;DHT22;6376;48.182;-1.644;2024-01-07T14:57:05;11.20;82.70
12622;DHT22;6376;48.182;-1.644;2024-01-07T14:59:34;11.10;82.60
12622;DHT22;6376;48.182;-1.644;2024-01-07T15:02:01;11.10;82.60
12622;DHT22;6376;48.182;-1.644;2024-01-07T15:04:28;11.20;83.40
12622;DHT22;6376;48.182;-1.644;2024-01-07T15:06:54;11.20;82.60
12622;DHT22;6376;48.182;-1.644;2024-01-07T15:09:19;11.20;82.70
12622;DHT22;6376;48.182;-1.644;2024-01-07T15:11:46;11.10;82.60
12622;DHT22;6376;48.182;-1.644;2024-01-07T15:14:14;11.10;82.70
12622;DHT22;6376;48.182;-1.644;2024-01-07T15:16:40;11.10;82.70
12622;DHT22;6376;48.182;-1.644;2024-01-07T15:19:05;11.10;82.60
12622;DHT22;6376;48.182;-1.644;2024-01-07T15:21:31;11.10;82.60
12622;DHT22;6376;48.182;-1.644;2024-01-07T15:23:57;11.10;82.50
12622;DHT22;6376;48.182;-1.644;2024-01-07T15:26:23;11.10;82.70
12622;DHT22;6376;48.182;-1.644;2024-01-07T15:28:48;11.10;82.60